createdAt,value
2023-03-07T00:01:30.097Z,96.05
2023-03-07T00:03:57.209Z,96.17
2023-03-07T00:06:24.141Z,96.25
2023-03-07T00:08:51.606Z,96.39
2023-03-07T00:11:18.691Z,96.55
2023-03-07T00:13:45.149Z,96.51
2023-03-07T00:16:13.291Z,96.68
2023-03-07T00:18:39.975Z,96.84
2023-03-07T00:21:07.861Z,96.96
2023-03-07T00:23:35.591Z,97.05
2023-03-07T00:26:06.513Z,97.07
2023-03-07T00:28:33.018Z,97.06
2023-03-07T00:31:00.932Z,97.16
2023-03-07T00:33:27.490Z,97.16
2023-03-07T00:35:55.203Z,97.07
2023-03-07T00:38:21.823Z,97.14
2023-03-07T00:40:55.338Z,97.22
2023-03-07T00:43:21.949Z,97.46
2023-03-07T00:45:48.757Z,97.34
2023-03-07T00:48:15.290Z,97.45
2023-03-07T00:50:41.955Z,97.33
2023-03-07T00:53:08.644Z,97.38
2023-03-07T00:55:35.108Z,97.32
2023-03-07T00:58:01.804Z,97.33
2023-03-07T01:00:28.946Z,97.34
2023-03-07T01:02:57.295Z,97.36
2023-03-07T01:05:27.606Z,97.33
2023-03-07T01:07:59.047Z,97.50
2023-03-07T01:10:25.504Z,97.51
2023-03-07T01:12:55.348Z,97.35
2023-03-07T01:15:22.281Z,97.38
2023-03-07T01:17:48.743Z,97.37
2023-03-07T01:20:15.445Z,97.34
2023-03-07T01:22:44.228Z,97.36
2023-03-07T01:25:13.130Z,97.55
2023-03-07T01:27:42.525Z,97.64
2023-03-07T01:30:09.346Z,97.58
2023-03-07T01:32:37.853Z,97.66
2023-03-07T01:35:08.127Z,97.74
2023-03-07T01:37:34.896Z,97.80
2023-03-07T01:40:02.222Z,97.92
2023-03-07T01:42:32.034Z,97.89
2023-03-07T01:45:25.680Z,97.84
2023-03-07T01:47:58.009Z,97.99
2023-03-07T01:50:38.806Z,98.13
2023-03-07T01:53:08.448Z,98.03
2023-03-07T01:55:36.094Z,98.21
2023-03-07T01:58:13.147Z,98.20
2023-03-07T02:00:40.640Z,98.10
2023-03-07T02:03:27.374Z,98.26
2023-03-07T02:05:58.987Z,98.36
2023-03-07T02:08:34.195Z,98.34
2023-03-07T02:11:15.858Z,98.54
2023-03-07T02:14:11.336Z,98.27
2023-03-07T02:16:38.462Z,98.46
2023-03-07T02:19:21.824Z,98.50
2023-03-07T02:22:06.808Z,98.34
2023-03-07T02:24:40.799Z,98.42
2023-03-07T02:27:07.483Z,98.28
2023-03-07T02:29:37.320Z,98.40
2023-03-07T02:32:04.159Z,98.47
2023-03-07T02:34:54.160Z,98.41
2023-03-07T02:37:25.060Z,98.48
2023-03-07T02:39:52.781Z,98.37
2023-03-07T02:42:28.178Z,98.38
2023-03-07T02:45:08.121Z,98.53
2023-03-07T02:47:54.678Z,98.49
2023-03-07T02:50:31.582Z,98.56
2023-03-07T02:52:58.476Z,98.54
2023-03-07T02:55:38.573Z,98.64
2023-03-07T02:58:05.287Z,98.72
2023-03-07T03:00:32.296Z,98.60
2023-03-07T03:03:02.218Z,98.62
2023-03-07T03:05:33.858Z,98.74
2023-03-07T03:08:03.097Z,98.76
2023-03-07T03:10:29.985Z,98.72
2023-03-07T03:12:57.729Z,98.75
2023-03-07T03:15:26.741Z,98.70
2023-03-07T03:17:54.006Z,98.71
2023-03-07T03:20:23.109Z,98.73
2023-03-07T03:22:52.286Z,98.79
2023-03-07T03:25:21.363Z,98.71
2023-03-07T03:27:48.431Z,98.77
2023-03-07T03:30:15.258Z,98.83
2023-03-07T03:32:42.208Z,98.90
2023-03-07T03:35:10.065Z,98.86
2023-03-07T03:37:40.209Z,98.83
2023-03-07T03:40:07.438Z,98.77
2023-03-07T03:42:34.130Z,98.84
2023-03-07T03:45:01.251Z,99.08
2023-03-07T03:47:29.105Z,98.96
2023-03-07T03:49:55.702Z,99.09
2023-03-07T03:52:24.879Z,99.14
2023-03-07T03:54:54.346Z,99.07
2023-03-07T03:57:20.991Z,99.11
2023-03-07T03:59:47.501Z,99.20
2023-03-07T04:02:15.586Z,99.16
2023-03-07T04:04:47.473Z,99.10
2023-03-07T04:07:14.069Z,99.11
2023-03-07T04:09:40.569Z,99.01
2023-03-07T04:12:09.907Z,99.35
2023-03-07T04:14:38.507Z,99.13
2023-03-07T04:17:05.427Z,99.21
2023-03-07T04:19:32.179Z,99.25
2023-03-07T04:22:04.266Z,99.42
2023-03-07T04:24:30.935Z,99.45
2023-03-07T04:27:00.207Z,99.45
2023-03-07T04:29:27.079Z,99.38
2023-03-07T04:32:00.373Z,99.49
2023-03-07T04:34:27.199Z,99.46
2023-03-07T04:36:53.628Z,99.57
2023-03-07T04:39:20.236Z,99.79
2023-03-07T04:41:46.837Z,99.62
2023-03-07T04:44:21.998Z,99.66
2023-03-07T04:46:48.536Z,99.83
2023-03-07T04:49:17.903Z,99.65
2023-03-07T04:51:44.379Z,99.93
2023-03-07T04:54:13.017Z,99.89
2023-03-07T04:56:40.013Z,99.92
2023-03-07T04:59:10.158Z,99.88
2023-03-07T05:01:36.806Z,99.99
2023-03-07T05:04:03.513Z,99.88
2023-03-07T05:06:30.274Z,99.94
2023-03-07T05:08:57.375Z,99.97
2023-03-07T05:11:23.922Z,99.95
2023-03-07T05:13:53.057Z,100.00
2023-03-07T05:16:21.818Z,99.98
2023-03-07T05:18:53.986Z,99.88
2023-03-07T05:21:20.498Z,99.95
2023-03-07T05:23:47.023Z,99.99
2023-03-07T05:26:13.696Z,99.96
2023-03-07T05:28:40.726Z,99.96
2023-03-07T05:31:07.694Z,100.00
2023-03-07T05:33:38.422Z,100.00
2023-03-07T05:36:07.701Z,99.98
2023-03-07T05:38:35.213Z,99.98
2023-03-07T05:41:01.645Z,99.97
2023-03-07T05:43:28.530Z,99.96
2023-03-07T05:45:58.437Z,99.78
2023-03-07T05:48:25.144Z,99.72
2023-03-07T05:50:57.742Z,99.78
2023-03-07T05:53:24.332Z,99.66
2023-03-07T05:56:01.319Z,99.48
2023-03-07T05:58:28.857Z,99.43
2023-03-07T06:00:55.583Z,99.40
2023-03-07T06:03:25.329Z,99.18
2023-03-07T06:05:52.465Z,99.26
2023-03-07T06:08:21.200Z,99.35
2023-03-07T06:10:51.627Z,99.33
2023-03-07T06:13:22.456Z,99.25
2023-03-07T06:15:49.722Z,99.32
2023-03-07T06:18:17.295Z,99.17
2023-03-07T06:20:44.111Z,99.18
2023-03-07T06:23:15.632Z,99.15
2023-03-07T06:25:45.529Z,99.02
2023-03-07T06:28:21.531Z,98.82
2023-03-07T06:30:48.227Z,98.92
2023-03-07T06:33:33.800Z,98.86
2023-03-07T06:36:04.790Z,98.92
2023-03-07T07:49:45.218Z,90.88
2023-03-07T07:52:11.965Z,90.62
2023-03-07T07:54:39.797Z,90.58
2023-03-07T07:57:07.320Z,90.07
2023-03-07T07:59:33.988Z,89.98
2023-03-07T08:02:03.826Z,89.42
2023-03-07T08:04:31.055Z,89.05
2023-03-07T08:06:57.844Z,88.62
2023-03-07T08:09:24.498Z,87.93
2023-03-07T08:11:51.166Z,87.74
2023-03-07T08:14:17.827Z,87.28
2023-03-07T08:16:47.318Z,85.72
2023-03-07T08:19:17.160Z,85.31
2023-03-07T08:21:47.145Z,85.01
2023-03-07T08:24:17.426Z,84.22
2023-03-07T08:26:44.436Z,84.16
2023-03-07T08:29:16.492Z,83.88
2023-03-07T08:31:46.957Z,83.55
2023-03-07T08:34:16.881Z,84.08
2023-03-07T08:36:43.814Z,83.81
2023-03-07T08:39:13.853Z,82.82
2023-03-07T08:41:46.080Z,81.87
2023-03-07T08:44:23.078Z,82.12
2023-03-07T08:46:49.918Z,80.44
2023-03-07T08:49:16.494Z,81.08
2023-03-07T08:51:43.150Z,81.26
2023-03-07T08:54:09.797Z,80.42
2023-03-07T08:56:36.192Z,80.52
2023-03-07T08:59:07.558Z,79.56
2023-03-07T09:01:34.058Z,78.72
2023-03-07T09:04:00.576Z,78.50
2023-03-07T09:06:27.652Z,77.06
2023-03-07T09:08:58.239Z,77.53
2023-03-07T09:11:24.730Z,75.08
2023-03-07T09:13:53.229Z,74.59
2023-03-07T09:16:20.964Z,75.09
2023-03-07T09:18:47.540Z,75.66
2023-03-07T09:21:14.078Z,73.64
2023-03-07T09:23:42.139Z,74.51
2023-03-07T09:26:09.974Z,74.85
2023-03-07T09:28:36.617Z,75.41
2023-03-07T09:31:07.536Z,73.46
2023-03-07T09:33:36.360Z,73.81
2023-03-07T09:36:10.227Z,73.17
2023-03-07T09:38:37.662Z,72.42
2023-03-07T09:41:16.039Z,72.52
2023-03-07T09:44:12.081Z,71.38
2023-03-07T09:47:20.013Z,69.67
2023-03-07T09:49:54.657Z,70.42
2023-03-07T09:52:26.602Z,71.02
2023-03-07T09:54:57.199Z,70.25
2023-03-07T09:57:30.744Z,70.21
2023-03-07T10:00:04.131Z,68.10
2023-03-07T10:03:13.832Z,68.02
2023-03-07T10:05:55.419Z,67.83
2023-03-07T10:08:27.271Z,69.02
2023-03-07T10:11:00.290Z,68.43
2023-03-07T10:13:30.043Z,68.23
2023-03-07T10:16:20.267Z,68.34
2023-03-07T10:18:52.838Z,68.78
2023-03-07T10:21:19.762Z,69.63
2023-03-07T10:23:46.289Z,68.67
2023-03-07T10:26:19.084Z,68.80
2023-03-07T10:28:45.974Z,69.16
2023-03-07T10:31:35.901Z,69.67
2023-03-07T10:34:26.940Z,68.86
2023-03-07T10:37:09.182Z,67.62
2023-03-07T10:39:56.931Z,68.19
2023-03-07T10:42:33.003Z,67.18
2023-03-07T10:45:12.600Z,65.56
2023-03-07T10:47:52.362Z,64.64
2023-03-07T10:50:36.090Z,65.12
2023-03-07T10:53:04.121Z,64.45
2023-03-07T10:55:33.523Z,63.63
2023-03-07T10:58:20.851Z,63.86
2023-03-07T11:01:14.388Z,62.82
2023-03-07T11:03:55.326Z,62.31
2023-03-07T11:06:27.969Z,60.76
2023-03-07T11:08:54.696Z,61.35
2023-03-07T11:11:23.646Z,62.45
2023-03-07T11:14:18.773Z,62.05
2023-03-07T11:16:59.629Z,59.84
2023-03-07T11:19:29.489Z,60.64
2023-03-07T11:21:57.141Z,59.19
2023-03-07T11:24:27.985Z,58.08
2023-03-07T11:26:55.858Z,58.34
2023-03-07T11:29:22.394Z,58.67
2023-03-07T11:31:57.838Z,57.70
2023-03-07T11:34:47.531Z,56.44
2023-03-07T11:37:23.752Z,57.22
2023-03-07T11:40:02.645Z,56.84
2023-03-07T11:42:38.560Z,56.03
2023-03-07T11:45:05.152Z,56.68
2023-03-07T11:47:34.778Z,56.04
2023-03-07T11:50:01.612Z,56.04
2023-03-07T11:52:54.315Z,56.76
2023-03-07T11:55:35.541Z,56.79
2023-03-07T11:58:25.651Z,57.64
2023-03-07T12:00:52.133Z,57.13
2023-03-07T12:03:34.215Z,56.80
2023-03-07T12:06:00.701Z,57.61
2023-03-07T12:08:36.923Z,56.78
2023-03-07T12:11:22.255Z,57.16
2023-03-07T12:13:49.160Z,57.31
2023-03-07T12:16:24.526Z,57.04
2023-03-07T12:19:07.281Z,57.70
2023-03-07T12:21:34.421Z,57.41
2023-03-07T12:24:03.379Z,56.77
2023-03-07T12:26:56.636Z,56.27
2023-03-07T12:29:23.149Z,56.06
2023-03-07T12:31:52.489Z,56.37
2023-03-07T12:34:31.910Z,55.81
2023-03-07T12:37:18.573Z,55.49
2023-03-07T12:39:49.977Z,55.80
2023-03-07T12:42:35.514Z,56.64
2023-03-07T12:45:19.990Z,56.26
2023-03-07T12:47:49.784Z,54.68
2023-03-07T12:50:16.139Z,55.03
2023-03-07T12:52:47.667Z,54.05
2023-03-07T12:55:26.266Z,53.78
2023-03-07T12:57:57.316Z,54.41
2023-03-07T13:00:24.163Z,54.13
2023-03-07T13:03:01.415Z,53.73
2023-03-07T13:05:28.886Z,54.34
2023-03-07T13:07:56.337Z,54.90
2023-03-07T13:10:24.329Z,54.85
2023-03-07T13:12:50.990Z,54.77
2023-03-07T13:15:20.491Z,55.07
2023-03-07T13:17:58.872Z,55.10
2023-03-07T13:20:28.592Z,55.02
2023-03-07T13:22:56.382Z,55.38
2023-03-07T13:25:24.277Z,55.11
2023-03-07T13:27:52.996Z,54.94
2023-03-07T13:30:22.671Z,55.00
2023-03-07T13:32:52.195Z,53.61
2023-03-07T13:35:48.246Z,54.05
2023-03-07T13:38:23.104Z,54.71
2023-03-07T13:40:53.801Z,54.41
2023-03-07T13:43:38.834Z,54.56
2023-03-07T13:46:25.342Z,54.16
2023-03-07T13:48:51.896Z,54.90
2023-03-07T13:51:18.518Z,55.60
2023-03-07T13:53:46.123Z,55.49
2023-03-07T13:56:34.375Z,55.21
2023-03-07T13:59:19.413Z,55.16
2023-03-07T14:01:55.358Z,54.48
2023-03-07T14:04:38.358Z,54.71
2023-03-07T14:07:13.483Z,54.50
2023-03-07T14:09:41.653Z,54.62
2023-03-07T14:12:24.777Z,54.92
2023-03-07T14:14:54.296Z,54.70
2023-03-07T14:17:48.747Z,54.28
2023-03-07T14:20:28.700Z,54.33
2023-03-07T14:23:27.519Z,54.60
2023-03-07T14:26:17.376Z,54.63
2023-03-07T14:28:58.190Z,55.40
2023-03-07T14:31:47.365Z,55.30
2023-03-07T14:34:25.442Z,55.76
2023-03-07T14:37:21.439Z,55.15
2023-03-07T14:40:07.708Z,54.96
2023-03-07T14:43:23.585Z,54.59
2023-03-07T14:46:19.527Z,54.44
2023-03-07T14:49:35.541Z,54.92
2023-03-07T14:52:30.415Z,55.45
2023-03-07T14:55:32.368Z,55.13
2023-03-07T14:58:27.578Z,55.32
2023-03-07T15:00:58.443Z,55.01
2023-03-07T15:03:27.895Z,55.88
2023-03-07T15:05:56.101Z,56.00
2023-03-07T15:08:32.536Z,56.31
2023-03-07T15:11:05.651Z,56.52
2023-03-07T15:13:48.539Z,56.19
2023-03-07T15:16:27.058Z,56.87
2023-03-07T15:19:03.321Z,56.81
2023-03-07T15:21:39.829Z,56.93
2023-03-07T15:24:15.924Z,56.36
2023-03-07T15:26:51.256Z,56.87
2023-03-07T15:29:25.177Z,57.38
2023-03-07T15:32:24.500Z,57.49
2023-03-07T15:34:58.467Z,57.93
2023-03-07T15:37:26.837Z,58.27
2023-03-07T15:40:08.691Z,58.41
2023-03-07T15:42:52.666Z,58.54
2023-03-07T15:45:28.577Z,58.56
2023-03-07T15:47:55.921Z,58.90
2023-03-07T15:50:23.526Z,58.92
2023-03-07T15:52:55.227Z,59.30
2023-03-07T15:55:24.970Z,59.55
2023-03-07T15:58:11.662Z,59.89
2023-03-07T16:00:44.626Z,60.15
2023-03-07T16:03:30.022Z,60.32
2023-03-07T16:05:58.026Z,60.62
2023-03-07T16:08:24.529Z,60.58
2023-03-07T16:10:57.958Z,61.03
2023-03-07T16:13:26.842Z,61.37
2023-03-07T16:16:14.756Z,61.57
2023-03-07T16:18:42.092Z,62.12
2023-03-07T16:21:12.020Z,62.73
2023-03-07T16:23:38.451Z,63.05
2023-03-07T16:26:05.611Z,63.35
2023-03-07T16:28:33.104Z,63.82
2023-03-07T16:30:59.736Z,63.67
2023-03-07T16:33:26.375Z,63.84
2023-03-07T16:35:52.736Z,64.21
2023-03-07T16:38:19.225Z,64.43
2023-03-07T16:40:46.894Z,64.67
2023-03-07T16:43:36.508Z,64.67
2023-03-07T16:46:09.854Z,65.00
2023-03-07T16:48:36.418Z,65.08
2023-03-07T16:51:03.482Z,65.30
2023-03-07T16:53:29.955Z,65.41
2023-03-07T16:55:57.893Z,65.59
2023-03-07T16:58:26.182Z,65.75
2023-03-07T17:00:58.595Z,65.68
2023-03-07T17:03:25.784Z,65.95
2023-03-07T17:05:52.232Z,66.10
2023-03-07T17:08:21.393Z,66.16
2023-03-07T17:10:47.931Z,66.52
2023-03-07T17:13:16.289Z,66.50
2023-03-07T17:15:43.296Z,66.70
2023-03-07T17:18:09.909Z,66.94
2023-03-07T17:20:36.280Z,66.94
2023-03-07T17:23:03.115Z,67.21
2023-03-07T17:25:29.743Z,67.28
2023-03-07T17:28:04.567Z,67.62
2023-03-07T17:30:31.314Z,67.65
2023-03-07T17:32:58.187Z,67.77
2023-03-07T17:35:25.866Z,68.04
2023-03-07T17:37:52.498Z,68.32
2023-03-07T17:40:22.093Z,68.35
2023-03-07T17:42:49.371Z,68.61
2023-03-07T17:45:17.039Z,68.84
2023-03-07T17:47:45.164Z,68.98
2023-03-07T17:50:14.693Z,69.07
2023-03-07T17:52:50.805Z,69.46
2023-03-07T17:55:28.616Z,69.66
2023-03-07T17:57:55.500Z,69.68
2023-03-07T18:00:22.980Z,69.87
2023-03-07T18:02:51.981Z,69.97
2023-03-07T18:05:19.144Z,70.29
2023-03-07T18:07:45.877Z,70.16
2023-03-07T18:10:12.320Z,70.34
2023-03-07T18:12:39.482Z,70.61
2023-03-07T18:15:11.130Z,71.01
2023-03-07T18:17:49.437Z,71.32
2023-03-07T18:20:20.645Z,71.53
2023-03-07T18:22:50.692Z,71.25
2023-03-07T18:25:17.600Z,71.59
2023-03-07T18:27:44.118Z,71.69
2023-03-07T18:30:10.997Z,71.77
2023-03-07T18:32:37.602Z,71.90
2023-03-07T18:35:04.236Z,72.10
2023-03-07T18:37:30.837Z,72.16
2023-03-07T18:39:57.261Z,72.46
2023-03-07T18:42:23.703Z,72.71
2023-03-07T18:44:51.057Z,72.66
2023-03-07T18:47:17.514Z,73.09
2023-03-07T18:49:43.921Z,73.39
2023-03-07T18:52:10.617Z,73.62
2023-03-07T18:54:37.113Z,73.53
2023-03-07T18:57:03.534Z,73.78
2023-03-07T18:59:30.141Z,73.75
2023-03-07T19:01:56.593Z,73.86
2023-03-07T19:04:23.080Z,74.21
2023-03-07T19:06:49.798Z,74.16
2023-03-07T19:09:17.497Z,74.42
2023-03-07T19:11:44.289Z,74.34
2023-03-07T19:14:11.350Z,74.44
2023-03-07T19:16:37.949Z,74.72
2023-03-07T19:19:04.535Z,74.70
2023-03-07T19:21:31.656Z,74.93
2023-03-07T19:23:59.662Z,75.24
2023-03-07T19:26:26.572Z,75.22
2023-03-07T19:28:54.106Z,75.46
2023-03-07T19:31:23.681Z,75.72
2023-03-07T19:33:51.023Z,75.79
2023-03-07T19:36:19.848Z,75.90
2023-03-07T19:38:47.721Z,76.36
2023-03-07T19:41:17.255Z,76.27
2023-03-07T19:43:44.210Z,76.38
2023-03-07T19:46:11.639Z,76.40
2023-03-07T19:48:40.901Z,76.79
2023-03-07T19:51:26.137Z,76.76
2023-03-07T19:53:55.982Z,76.76
2023-03-07T19:56:25.907Z,76.75
2023-03-07T19:58:52.836Z,76.85
2023-03-07T20:01:20.522Z,76.91
2023-03-07T20:03:47.679Z,76.99
2023-03-07T20:06:18.077Z,77.20
2023-03-07T20:08:53.054Z,77.45
2023-03-07T20:11:27.181Z,77.34
2023-03-07T20:13:55.399Z,77.50
2023-03-07T20:16:23.857Z,77.61
2023-03-07T20:18:52.209Z,77.40
2023-03-07T20:21:19.616Z,77.69
2023-03-07T20:23:46.822Z,77.86
2023-03-07T20:26:15.209Z,78.03
2023-03-07T20:28:44.808Z,77.88
2023-03-07T20:31:11.412Z,78.15
2023-03-07T20:33:41.389Z,78.32
2023-03-07T20:36:09.694Z,78.48
2023-03-07T20:38:36.869Z,78.42
2023-03-07T20:41:05.122Z,78.50
2023-03-07T20:43:32.160Z,78.57
2023-03-07T20:46:03.326Z,78.41
2023-03-07T20:48:33.172Z,78.64
2023-03-07T20:51:03.935Z,78.66
2023-03-07T20:53:30.889Z,78.52
2023-03-07T20:56:05.039Z,78.66
2023-03-07T20:58:32.178Z,78.66
2023-03-07T21:00:58.906Z,78.83
2023-03-07T21:03:25.912Z,78.78
2023-03-07T21:05:53.209Z,78.87
2023-03-07T21:08:19.719Z,78.81
2023-03-07T21:10:46.952Z,78.99
2023-03-07T21:13:13.454Z,78.89
2023-03-07T21:15:39.894Z,79.02
2023-03-07T21:18:06.501Z,78.93
2023-03-07T21:20:33.119Z,78.99
2023-03-07T21:22:59.466Z,78.82
2023-03-07T21:25:27.083Z,79.00
2023-03-07T21:27:53.516Z,79.06
2023-03-07T21:30:20.202Z,79.05
2023-03-07T21:32:49.715Z,79.27
2023-03-07T21:35:22.655Z,79.07
2023-03-07T21:37:52.560Z,79.27
2023-03-07T21:40:19.269Z,79.32
2023-03-07T21:42:45.829Z,79.29
2023-03-07T21:45:14.791Z,79.32
2023-03-07T21:47:45.645Z,79.31
2023-03-07T21:50:14.318Z,79.52
2023-03-07T21:52:40.903Z,79.40
2023-03-07T21:55:08.117Z,79.46
2023-03-07T21:57:34.778Z,79.53
2023-03-07T22:00:01.386Z,79.64
2023-03-07T22:02:30.687Z,79.87
2023-03-07T22:04:59.856Z,79.75
2023-03-07T22:07:26.305Z,79.87
2023-03-07T22:09:55.803Z,79.81
2023-03-07T22:12:22.439Z,79.88
2023-03-07T22:14:48.970Z,79.67
2023-03-07T22:17:15.561Z,79.65
2023-03-07T22:19:47.436Z,79.76
2023-03-07T22:22:14.149Z,79.95
2023-03-07T22:24:43.923Z,79.76
2023-03-07T22:27:10.645Z,79.92
2023-03-07T22:29:37.067Z,80.10
2023-03-07T22:32:09.182Z,79.98
2023-03-07T22:34:38.786Z,80.06
2023-03-07T22:37:08.456Z,80.39
2023-03-07T22:39:46.093Z,80.26
2023-03-07T22:42:12.610Z,80.41
2023-03-07T22:44:39.230Z,80.40
2023-03-07T22:47:08.489Z,80.44
2023-03-07T22:49:35.100Z,80.53
2023-03-07T22:52:02.750Z,80.63
2023-03-07T22:54:31.744Z,80.76
2023-03-07T22:57:09.017Z,80.60
2023-03-07T22:59:43.181Z,80.72
2023-03-07T23:02:09.610Z,80.75
2023-03-07T23:04:38.728Z,80.95
2023-03-07T23:07:07.683Z,80.73
2023-03-07T23:09:36.694Z,80.83
2023-03-07T23:12:03.181Z,80.75
2023-03-07T23:14:29.579Z,80.89
2023-03-07T23:16:56.273Z,81.13
2023-03-07T23:19:22.794Z,80.98
2023-03-07T23:21:49.293Z,81.13
2023-03-07T23:24:15.715Z,81.26
2023-03-07T23:26:42.114Z,81.43
2023-03-07T23:29:08.498Z,81.45
2023-03-07T23:31:36.586Z,81.39
2023-03-07T23:34:04.789Z,81.56
2023-03-07T23:36:31.287Z,81.67
2023-03-07T23:38:58.604Z,81.68
2023-03-07T23:41:25.418Z,81.81
2023-03-07T23:43:53.067Z,81.81
2023-03-07T23:46:19.661Z,82.25
2023-03-07T23:48:46.103Z,82.31
2023-03-07T23:51:12.728Z,82.55
2023-03-07T23:53:39.219Z,82.68
2023-03-07T23:56:06.411Z,83.12
2023-03-07T23:58:36.348Z,83.29
